Time;durP1;ratioP1;P1;durP2;ratioP2;P2;SDS_P1;SDS_P2;PMS_P1;PMS_P2;Temp;Humidity;BMP_temperature;BMP_pressure;BME280_temperature;BME280_humidity;BME280_pressure;Samples;Min_cycle;Max_cycle;Signal;HPM_P1;HPM_P2
2021/06/14 00:00:13;;;;;;;7.70;2.58;;;;;;;10.01;100.00;101493.00;5057099;28;20025;-80
2021/06/14 00:02:40;;;;;;;8.02;2.63;;;;;;;9.94;100.00;101491.25;5058497;28;20055;-80
2021/06/14 00:05:09;;;;;;;7.13;2.85;;;;;;;9.85;100.00;101484.38;5058373;28;20454;-80
2021/06/14 00:07:34;;;;;;;8.75;2.60;;;;;;;9.80;100.00;101485.22;5057402;28;20552;-79
2021/06/14 00:09:59;;;;;;;5.32;2.30;;;;;;;9.75;100.00;101477.44;5057458;28;20045;-80
2021/06/14 00:12:25;;;;;;;6.65;2.88;;;;;;;9.75;100.00;101479.19;5056990;28;20447;-80
2021/06/14 00:14:52;;;;;;;8.90;2.85;;;;;;;9.69;100.00;101482.63;5056921;28;20120;-80
2021/06/14 00:17:18;;;;;;;8.63;2.67;;;;;;;9.69;100.00;101486.06;5056966;28;20028;-80
2021/06/14 00:19:45;;;;;;;6.85;2.60;;;;;;;9.67;100.00;101477.47;5058475;28;20021;-80
2021/06/14 00:22:11;;;;;;;8.07;2.72;;;;;;;9.64;100.00;101484.38;5058051;28;20036;-80
2021/06/14 00:24:36;;;;;;;7.30;3.00;;;;;;;9.58;100.00;101480.06;5056782;28;20025;-80
2021/06/14 00:27:02;;;;;;;7.80;2.70;;;;;;;9.54;100.00;101488.66;5058291;28;20021;-80
2021/06/14 00:29:27;;;;;;;8.38;2.78;;;;;;;9.55;100.00;101481.78;5056650;28;20055;-80
2021/06/14 00:31:52;;;;;;;9.98;2.58;;;;;;;9.50;100.00;101486.06;5057173;28;20132;-80
2021/06/14 00:34:18;;;;;;;11.55;3.10;;;;;;;9.48;100.00;101480.88;5056463;28;20025;-80
2021/06/14 00:36:43;;;;;;;6.70;2.38;;;;;;;9.48;100.00;101480.03;5058159;28;20114;-80
2021/06/14 00:39:08;;;;;;;6.68;2.85;;;;;;;9.43;100.00;101480.88;5056751;28;20025;-80
2021/06/14 00:41:34;;;;;;;8.30;2.83;;;;;;;9.42;100.00;101483.47;5057921;28;20029;-79
2021/06/14 00:43:59;;;;;;;7.22;2.70;;;;;;;9.36;100.00;101484.34;5056534;28;20025;-80
2021/06/14 00:46:24;;;;;;;10.90;2.78;;;;;;;9.31;100.00;101480.00;5056549;28;20436;-80
2021/06/14 00:48:49;;;;;;;8.32;2.70;;;;;;;9.44;100.00;101477.44;5056517;28;20085;-80
2021/06/14 00:51:15;;;;;;;9.00;2.47;;;;;;;9.42;100.00;101471.41;5058245;28;20374;-80
2021/06/14 00:53:42;;;;;;;6.13;2.40;;;;;;;9.30;100.00;101473.09;5056306;28;20021;-80
2021/06/14 00:56:10;;;;;;;5.35;2.50;;;;;;;9.30;100.00;101468.78;5056353;28;20028;-80
2021/06/14 00:58:37;;;;;;;6.07;2.55;;;;;;;9.30;100.00;101471.38;5057825;28;20025;-80
2021/06/14 01:01:04;;;;;;;8.65;2.58;;;;;;;9.30;100.00;101468.78;5057409;28;20060;-80
2021/06/14 01:03:29;;;;;;;7.72;2.40;;;;;;;9.32;100.00;101467.06;5072606;28;20068;-78
2021/06/14 01:06:01;;;;;;;6.30;2.60;;;;;;;9.31;100.00;101470.50;5080409;28;20025;-78
2021/06/14 01:08:27;;;;;;;8.20;2.63;;;;;;;9.32;100.00;101469.66;5056788;28;20071;-80
2021/06/14 01:10:53;;;;;;;8.35;2.63;;;;;;;9.38;100.00;101459.28;5054614;28;20032;-80
2021/06/14 01:13:25;;;;;;;5.47;2.25;;;;;;;9.39;100.00;101455.88;5054168;28;20056;-80
2021/06/14 01:16:19;;;;;;;7.20;2.53;;;;;;;9.42;100.00;101470.50;5054298;28;20024;-80
2021/06/14 01:19:01;;;;;;;6.20;2.33;;;;;;;9.38;100.00;101455.84;5054220;28;20115;-80
2021/06/14 01:21:42;;;;;;;7.30;2.58;;;;;;;9.40;100.00;101448.97;5055403;28;20040;-80
2021/06/14 01:24:35;;;;;;;10.77;2.50;;;;;;;9.33;100.00;101458.44;5055396;28;20025;-80
2021/06/14 01:27:28;;;;;;;9.23;2.28;;;;;;;9.33;100.00;101452.38;5054225;28;20021;-80
2021/06/14 01:29:53;;;;;;;6.70;2.47;;;;;;;9.28;100.00;101451.53;5054084;28;20025;-80
2021/06/14 01:32:19;;;;;;;9.23;2.90;;;;;;;9.28;100.00;101444.63;5055338;28;20028;-80
2021/06/14 01:34:44;;;;;;;6.90;2.55;;;;;;;9.33;100.00;101437.75;5055059;28;20029;-80
2021/06/14 01:37:12;;;;;;;6.72;2.38;;;;;;;9.37;100.00;101433.41;5056466;28;20021;-80
2021/06/14 01:39:40;;;;;;;7.20;2.10;;;;;;;9.33;100.00;101431.66;5057478;28;20033;-80
2021/06/14 01:42:06;;;;;;;6.57;2.20;;;;;;;9.32;100.00;101430.81;5057319;28;20060;-80
2021/06/14 01:44:32;;;;;;;6.63;2.40;;;;;;;9.31;100.00;101425.66;5057591;28;20052;-80
2021/06/14 01:47:01;;;;;;;5.95;2.55;;;;;;;9.28;100.00;101418.75;5055828;28;20473;-80
2021/06/14 01:49:27;;;;;;;7.28;2.67;;;;;;;9.21;100.00;101420.47;5057110;28;20536;-80
2021/06/14 01:51:53;;;;;;;7.68;2.30;;;;;;;9.21;100.00;101414.44;5056866;28;20025;-80
2021/06/14 01:54:18;;;;;;;8.88;3.25;;;;;;;9.18;100.00;101414.41;5056002;28;20112;-80
2021/06/14 01:56:50;;;;;;;6.47;2.42;;;;;;;9.22;100.00;101418.72;5055572;28;20032;-80
2021/06/14 01:59:23;;;;;;;6.65;2.50;;;;;;;9.21;100.00;101420.47;5055665;28;20028;-80
2021/06/14 02:01:49;;;;;;;9.57;3.00;;;;;;;9.16;100.00;101417.00;5055310;28;20469;-80
2021/06/14 02:04:15;;;;;;;5.85;2.67;;;;;;;9.12;100.00;101407.50;5057213;28;20219;-81
2021/06/14 02:06:44;;;;;;;8.00;2.67;;;;;;;9.10;100.00;101410.94;5055649;28;20023;-80
2021/06/14 02:09:12;;;;;;;8.52;2.63;;;;;;;9.05;100.00;101416.13;5056431;28;20032;-80
2021/06/14 02:11:41;;;;;;;8.63;2.95;;;;;;;9.03;100.00;101406.63;5055492;28;20520;-80
2021/06/14 02:14:09;;;;;;;8.15;2.80;;;;;;;9.02;100.00;101405.78;5055274;28;20388;-81
2021/06/14 02:16:37;;;;;;;8.00;2.63;;;;;;;8.99;100.00;101403.19;5055866;28;20096;-81
2021/06/14 02:19:02;;;;;;;6.95;2.72;;;;;;;8.91;100.00;101402.28;5055140;28;20060;-80
2021/06/14 02:21:28;;;;;;;8.52;3.00;;;;;;;8.89;100.00;101402.28;5056240;28;20086;-79
2021/06/14 02:23:53;;;;;;;7.13;2.60;;;;;;;8.85;100.00;101394.53;5055400;28;20021;-79
2021/06/14 02:26:18;;;;;;;8.20;2.80;;;;;;;8.85;100.00;101389.34;5057969;28;20032;-80
2021/06/14 02:28:43;;;;;;;6.85;2.50;;;;;;;8.84;100.00;101387.63;5054787;28;20123;-79
2021/06/14 02:31:09;;;;;;;5.95;2.50;;;;;;;8.85;100.00;101397.09;5056478;28;20050;-79
2021/06/14 02:33:35;;;;;;;6.72;2.70;;;;;;;8.84;100.00;101395.38;5056506;28;20025;-79
2021/06/14 02:36:00;;;;;;;6.60;2.55;;;;;;;8.85;100.00;101403.13;5055431;28;20111;-79
2021/06/14 02:38:26;;;;;;;6.15;2.50;;;;;;;8.82;100.00;101387.59;5056687;28;20497;-79
2021/06/14 02:40:52;;;;;;;8.13;2.90;;;;;;;8.83;100.00;101388.47;5055458;28;20074;-79
2021/06/14 02:43:21;;;;;;;5.45;2.13;;;;;;;8.77;100.00;101378.97;5055237;28;20021;-80
2021/06/14 02:45:48;;;;;;;8.57;2.58;;;;;;;8.71;100.00;101384.13;5056251;28;20103;-80
2021/06/14 02:48:16;;;;;;;6.65;2.30;;;;;;;8.66;100.00;101381.53;5054898;28;20477;-80
2021/06/14 02:50:43;;;;;;;7.05;2.60;;;;;;;8.62;100.00;101376.34;5055189;28;20028;-80
2021/06/14 02:53:10;;;;;;;6.82;2.50;;;;;;;8.62;100.00;101378.91;5055061;28;20021;-80
2021/06/14 02:55:49;;;;;;;7.75;2.60;;;;;;;8.62;100.00;101378.91;5056596;28;20104;-80
2021/06/14 02:58:18;;;;;;;8.18;2.70;;;;;;;8.62;100.00;101377.22;5055177;28;20033;-80
2021/06/14 03:00:43;;;;;;;7.45;2.42;;;;;;;8.59;100.00;101373.75;5054922;28;20049;-80
2021/06/14 03:03:08;;;;;;;6.90;2.78;;;;;;;8.58;100.00;101377.19;5054898;28;20033;-79
2021/06/14 03:05:35;;;;;;;8.48;2.90;;;;;;;8.58;100.00;101378.06;5056085;28;20029;-80
2021/06/14 03:08:01;;;;;;;5.88;2.40;;;;;;;8.61;100.00;101377.22;5054830;28;20420;-79
2021/06/14 03:10:29;;;;;;;8.45;2.65;;;;;;;8.65;100.00;101381.50;5054764;28;20055;-79
2021/06/14 03:12:56;;;;;;;7.97;2.80;;;;;;;8.61;100.00;101384.97;5054880;28;20512;-79
2021/06/14 03:15:26;;;;;;;6.95;2.50;;;;;;;8.68;100.00;101384.13;5056842;28;20492;-80
2021/06/14 03:17:53;;;;;;;11.95;2.80;;;;;;;8.64;100.00;101378.06;5055756;28;20028;-80
2021/06/14 03:20:21;;;;;;;6.22;2.70;;;;;;;8.64;100.00;101372.03;5055556;28;20104;-80
2021/06/14 03:22:47;;;;;;;5.88;2.75;;;;;;;8.62;100.00;101374.63;5054735;28;20029;-79
2021/06/14 03:25:13;;;;;;;11.73;3.10;;;;;;;8.69;100.00;101380.69;5065024;28;20086;-78
2021/06/14 03:27:39;;;;;;;6.30;2.72;;;;;;;8.70;100.00;101378.09;5077839;28;20013;-77
2021/06/14 03:30:06;;;;;;;8.35;3.08;;;;;;;8.74;100.00;101366.91;5060045;28;20396;-79
2021/06/14 03:32:32;;;;;;;7.55;2.95;;;;;;;8.83;100.00;101378.13;5051975;28;20025;-80
2021/06/14 03:34:59;;;;;;;10.48;3.13;;;;;;;8.83;100.00;101371.22;5056032;28;20023;-80
2021/06/14 03:37:26;;;;;;;6.97;2.40;;;;;;;8.88;100.00;101374.69;5056050;28;20021;-80
2021/06/14 03:39:51;;;;;;;9.63;3.10;;;;;;;8.94;100.00;101361.75;5055901;28;20029;-80
2021/06/14 03:42:22;;;;;;;7.57;2.85;;;;;;;9.01;100.00;101366.94;5055944;28;20048;-80
2021/06/14 03:44:47;;;;;;;6.45;2.80;;;;;;;9.05;100.00;101364.38;5058310;28;20074;-80
2021/06/14 03:47:12;;;;;;;9.95;3.03;;;;;;;9.12;100.00;101362.66;5059408;28;20077;-80
2021/06/14 03:49:37;;;;;;;9.85;3.08;;;;;;;9.12;100.00;101354.88;5060722;28;20024;-80
2021/06/14 03:52:03;;;;;;;6.68;2.90;;;;;;;9.22;100.00;101343.66;5060960;28;20025;-80
2021/06/14 03:54:28;;;;;;;7.28;3.03;;;;;;;9.27;100.00;101349.72;5058725;28;20591;-80
2021/06/14 03:56:54;;;;;;;5.93;2.30;;;;;;;9.38;100.00;101347.97;5059142;28;20055;-80
2021/06/14 03:59:19;;;;;;;8.18;2.65;;;;;;;9.47;100.00;101343.66;5058221;28;20397;-80
2021/06/14 04:01:45;;;;;;;9.38;2.75;;;;;;;9.62;100.00;101341.03;5058351;28;20037;-80
2021/06/14 04:06:47;;;;;;;6.57;2.47;;;;;;;10.08;100.00;101331.41;5060610;28;20084;-80
2021/06/14 04:09:13;;;;;;;11.20;2.80;;;;;;;10.12;100.00;101334.84;5064825;22;20117;-90
2021/06/14 04:11:38;;;;;;;8.80;2.53;;;;;;;10.14;100.00;101330.53;5035649;28;20075;-89
2021/06/14 04:14:03;;;;;;;13.48;3.42;;;;;;;10.13;100.00;101329.69;5036008;28;20075;-89
2021/06/14 04:16:29;;;;;;;8.98;2.58;;;;;;;10.27;100.00;101332.22;5035765;28;20021;-89
2021/06/14 04:18:54;;;;;;;9.70;2.92;;;;;;;10.33;100.00;101332.19;5035055;28;20508;-89
2021/06/14 04:21:20;;;;;;;8.15;2.53;;;;;;;10.63;100.00;101332.91;5036046;28;20110;-89
2021/06/14 04:23:57;;;;;;;6.10;2.50;;;;;;;10.82;100.00;101341.44;5035265;28;20362;-90
2021/06/14 04:26:23;;;;;;;6.45;1.98;;;;;;;11.35;99.73;101337.56;5035424;28;20503;-89
2021/06/14 04:28:51;;;;;;;7.03;2.40;;;;;;;11.36;98.51;101335.81;5034791;28;20053;-89
2021/06/14 04:31:17;;;;;;;6.93;2.15;;;;;;;11.48;98.19;101333.09;5035249;28;20034;-89
2021/06/14 04:33:50;;;;;;;7.30;2.13;;;;;;;11.61;96.87;101342.53;5035790;28;20030;-89
2021/06/14 04:36:28;;;;;;;7.32;1.92;;;;;;;11.71;96.77;101344.16;5035262;28;20116;-87
2021/06/14 04:39:09;;;;;;;6.10;2.40;;;;;;;12.16;93.44;101357.56;5034818;28;20036;-87
2021/06/14 04:41:37;;;;;;;6.63;2.10;;;;;;;12.53;88.78;101357.09;5035333;28;20036;-87
2021/06/14 04:44:24;;;;;;;5.22;1.83;;;;;;;12.73;90.14;101366.34;5034479;28;20033;-87
2021/06/14 04:46:52;;;;;;;6.85;2.13;;;;;;;12.76;89.66;101358.50;5034568;28;20580;-87
2021/06/14 04:49:23;;;;;;;6.30;1.75;;;;;;;12.88;87.31;101355.72;5034989;28;20029;-87
2021/06/14 04:51:57;;;;;;;7.43;1.92;;;;;;;12.97;85.92;101352.97;5035359;28;20042;-87
2021/06/14 04:54:28;;;;;;;11.65;2.53;;;;;;;13.06;87.28;101350.22;5035788;28;20025;-87
2021/06/14 04:57:06;;;;;;;6.53;2.05;;;;;;;13.20;86.96;101351.75;5034604;28;20029;-87
2021/06/14 04:59:41;;;;;;;4.95;1.60;;;;;;;14.26;81.13;101355.91;5033457;28;20481;-87
2021/06/14 05:02:10;;;;;;;7.07;2.00;;;;;;;15.37;74.92;101355.13;5035116;28;20025;-87
2021/06/14 05:04:38;;;;;;;7.45;1.88;;;;;;;16.36;71.14;101357.72;5034541;28;20061;-87
2021/06/14 05:07:09;;;;;;;5.65;1.60;;;;;;;16.53;70.42;101353.69;5034421;28;20029;-87
2021/06/14 05:10:02;;;;;;;4.32;1.67;;;;;;;17.06;67.61;101352.06;5034711;28;20117;-87
2021/06/14 05:12:37;;;;;;;7.38;2.05;;;;;;;17.36;65.76;101358.91;5035424;28;20041;-87
2021/06/14 05:15:12;;;;;;;7.15;2.05;;;;;;;17.67;65.01;101350.88;5034319;28;20481;-88
2021/06/14 05:17:46;;;;;;;7.55;1.90;;;;;;;18.18;63.40;101341.19;5034669;28;20040;-88
2021/06/14 05:20:17;;;;;;;5.13;1.73;;;;;;;18.00;63.33;101350.59;5034503;28;20033;-88
2021/06/14 05:22:49;;;;;;;5.97;1.90;;;;;;;18.63;62.61;101353.50;5034839;28;20037;-87
2021/06/14 05:25:18;;;;;;;7.00;1.55;;;;;;;18.82;58.90;101345.75;5034212;28;20467;-87
2021/06/14 05:27:47;;;;;;;5.85;1.70;;;;;;;18.67;59.97;101355.06;5027873;28;20030;-86
2021/06/14 05:30:25;;;;;;;7.47;2.10;;;;;;;19.09;59.08;101360.44;5033252;28;20032;-88
2021/06/14 05:32:50;;;;;;;7.55;1.88;;;;;;;19.18;58.59;101351.31;5033733;28;20036;-88
2021/06/14 05:35:19;;;;;;;5.22;1.75;;;;;;;19.39;58.15;101339.00;5033961;28;20025;-88
2021/06/14 05:37:56;;;;;;;8.85;2.10;;;;;;;19.12;58.30;101337.53;5033869;28;20030;-87
2021/06/14 05:40:34;;;;;;;6.20;1.98;;;;;;;19.11;58.77;101333.19;5034041;28;20038;-87
2021/06/14 05:43:05;;;;;;;6.00;1.80;;;;;;;19.26;57.34;101336.03;5035200;28;20021;-88
2021/06/14 05:45:37;;;;;;;6.03;1.85;;;;;;;18.88;58.79;101337.63;5034825;28;20030;-88
2021/06/14 05:48:12;;;;;;;5.25;1.63;;;;;;;19.24;59.23;101335.28;5033833;28;20017;-88
2021/06/14 05:50:43;;;;;;;7.80;2.15;;;;;;;19.52;55.47;101331.47;5035023;28;20493;-88
2021/06/14 05:53:24;;;;;;;8.60;2.20;;;;;;;20.19;55.22;101330.25;5034205;28;20042;-88
2021/06/14 05:56:13;;;;;;;4.88;1.70;;;;;;;19.38;55.32;101326.78;5033612;28;20082;-89
2021/06/14 05:58:41;;;;;;;8.23;2.42;;;;;;;19.85;54.80;101321.25;5024065;28;20056;-89
2021/06/14 06:01:16;;;;;;;8.55;1.80;;;;;;;20.43;53.81;101321.19;5035123;28;20124;-89
2021/06/14 06:04:16;;;;;;;7.63;2.28;;;;;;;20.15;55.31;101334.81;5034320;28;20029;-89
2021/06/14 06:06:50;;;;;;;8.50;2.35;;;;;;;20.40;52.31;101328.41;5018535;28;20048;-89
2021/06/14 06:09:15;;;;;;;7.20;2.17;;;;;;;20.33;54.88;101341.00;5033964;28;20436;-89
2021/06/14 06:11:44;;;;;;;7.82;2.30;;;;;;;20.87;52.17;101334.09;5033864;28;20060;-89
2021/06/14 06:14:21;;;;;;;7.47;2.38;;;;;;;20.20;51.81;101334.63;5034322;28;20041;-89
2021/06/14 06:16:49;;;;;;;11.40;2.88;;;;;;;20.68;53.35;101335.88;5035210;28;20063;-89
2021/06/14 06:19:35;;;;;;;9.50;2.80;;;;;;;20.56;51.45;101331.19;5033366;28;20450;-89
2021/06/14 06:22:12;;;;;;;6.90;2.60;;;;;;;20.68;52.46;101323.53;5029441;28;20033;-88
2021/06/14 06:24:53;;;;;;;7.57;2.83;;;;;;;21.36;51.46;101321.09;5033872;28;20060;-88
2021/06/14 06:27:22;;;;;;;9.25;2.60;;;;;;;21.03;50.02;101315.72;5032872;28;20030;-88
2021/06/14 06:30:06;;;;;;;7.05;2.70;;;;;;;20.99;51.96;101327.31;5032703;28;20422;-89
2021/06/14 06:32:34;;;;;;;8.43;3.00;;;;;;;21.23;52.02;101314.69;5033637;28;20037;-89
2021/06/14 06:35:14;;;;;;;9.23;2.72;;;;;;;20.49;55.37;101316.56;5033338;28;20049;-89
2021/06/14 06:37:43;;;;;;;8.52;2.60;;;;;;;20.43;53.37;101312.44;5033602;28;20025;-90
2021/06/14 06:40:23;;;;;;;9.82;3.33;;;;;;;19.89;55.21;101309.66;5032933;28;20048;-90
2021/06/14 06:42:58;;;;;;;7.75;3.20;;;;;;;20.28;53.92;101306.09;5032906;28;20404;-89
2021/06/14 06:45:52;;;;;;;9.07;3.03;;;;;;;21.22;51.25;101298.97;5032573;28;20025;-89
2021/06/14 06:48:33;;;;;;;;;;;;;;;;;;;;;
2021/06/14 06:51:06;;;;;;;11.82;2.92;;;;;;;21.31;52.52;101280.88;5036331;28;20043;-89
2021/06/14 06:53:41;;;;;;;7.18;3.13;;;;;;;20.96;51.08;101282.66;5036420;28;20075;-88
2021/06/14 06:56:23;;;;;;;12.55;3.10;;;;;;;20.76;53.08;101274.88;5034469;28;20021;-89
2021/06/14 06:59:05;;;;;;;10.70;3.10;;;;;;;21.80;51.21;101273.03;5032833;28;20061;-90
2021/06/14 07:01:34;;;;;;;10.20;3.60;;;;;;;21.97;51.00;101272.09;5033128;28;20049;-90
2021/06/14 07:06:59;;;;;;;11.70;3.60;;;;;;;21.78;50.63;101266.97;5011173;28;20036;-90
2021/06/14 07:09:32;;;;;;;11.23;4.07;;;;;;;22.17;48.81;101271.06;5031763;28;20029;-89
2021/06/14 07:12:22;;;;;;;10.90;4.07;;;;;;;22.36;49.74;101260.31;5033149;28;20026;-89
2021/06/14 07:15:22;;;;;;;8.93;3.85;;;;;;;22.78;47.23;101261.41;5032889;28;20029;-89
2021/06/14 07:17:51;;;;;;;9.35;3.70;;;;;;;22.20;47.52;101262.97;5032336;28;20125;-89
2021/06/14 07:20:50;;;;;;;;;;;;;;;;;;;;;
2021/06/14 07:23:19;;;;;;;10.00;3.40;;;;;;;22.64;46.84;101253.44;5033597;28;20374;-88
2021/06/14 07:26:19;;;;;;;8.18;3.35;;;;;;;23.88;44.71;101256.59;5032560;28;20037;-88
2021/06/14 07:29:08;;;;;;;8.73;3.28;;;;;;;22.53;45.17;101252.25;5003568;28;20377;-87
2021/06/14 07:32:02;;;;;;;9.05;3.67;;;;;;;23.87;44.02;101258.41;5033030;28;20065;-87
2021/06/14 07:34:36;;;;;;;9.18;3.58;;;;;;;24.28;43.46;101256.72;5001453;28;20033;-88
2021/06/14 07:37:09;;;;;;;9.15;3.33;;;;;;;24.04;43.10;101249.38;5032381;28;20029;-88
2021/06/14 07:39:37;;;;;;;9.20;3.40;;;;;;;23.83;43.06;101254.25;5032115;28;20485;-88
2021/06/14 07:42:16;;;;;;;9.32;3.13;;;;;;;23.86;44.54;101250.53;5032156;28;20092;-87
2021/06/14 07:44:48;;;;;;;10.48;3.20;;;;;;;23.71;42.82;101246.19;5032110;28;20026;-87
2021/06/14 07:47:29;;;;;;;;;;;;;;;;;;;;;
2021/06/14 07:50:03;;;;;;;8.05;3.45;;;;;;;24.34;40.46;101238.59;5033445;28;20021;-87
2021/06/14 07:52:35;;;;;;;9.30;3.55;;;;;;;23.56;40.97;101237.41;5033042;28;20037;-88
2021/06/14 07:55:23;;;;;;;9.45;3.25;;;;;;;24.12;40.47;101231.19;5031888;28;20044;-87
2021/06/14 07:58:05;;;;;;;11.48;3.50;;;;;;;23.30;41.66;101231.88;5030761;28;20516;-87
2021/06/14 08:00:34;;;;;;;8.25;2.85;;;;;;;22.97;42.48;101219.75;5032600;28;20029;-87
2021/06/14 08:03:08;;;;;;;9.95;3.53;;;;;;;23.94;40.86;101216.47;5031802;28;20021;-88
2021/06/14 08:05:38;;;;;;;9.15;3.80;;;;;;;24.26;40.95;101210.88;5031977;28;20025;-89
2021/06/14 08:08:11;;;;;;;8.15;3.03;;;;;;;24.27;41.04;101199.34;5031741;28;20386;-88
2021/06/14 08:10:37;;;;;;;7.00;2.85;;;;;;;25.09;39.47;101205.38;5032969;28;20026;-88
2021/06/14 08:13:20;;;;;;;8.07;3.63;;;;;;;24.86;39.59;101197.19;5031975;28;20454;-87
2021/06/14 08:16:14;;;;;;;9.07;3.38;;;;;;;25.29;37.92;101194.25;5032303;28;20036;-87
2021/06/14 08:19:03;;;;;;;10.40;3.70;;;;;;;25.93;38.04;101189.69;5031420;28;20037;-87
2021/06/14 23:52:04;;;;;;;27.02;12.70;;;;;;;15.03;100.00;100843.06;4979745;28;20045;-89
2021/06/14 23:54:29;;;;;;;23.17;11.00;;;;;;;15.10;100.00;100852.41;4962034;28;20049;-89
2021/06/14 23:56:54;;;;;;;23.13;10.30;;;;;;;15.07;100.00;100851.66;4979681;28;20109;-88
2021/06/14 23:59:19;;;;;;;18.13;9.95;;;;;;;14.99;100.00;100856.25;4961881;28;20019;-89
